Time;durP1;ratioP1;P1;durP2;ratioP2;P2;SDS_P1;SDS_P2;PMS_P1;PMS_P2;Temp;Humidity;BMP_temperature;BMP_pressure;BME280_temperature;BME280_humidity;BME280_pressure;Samples;Min_cycle;Max_cycle;Signal;HPM_P1;HPM_P2
2021/08/12 00:00:16;;;;;;;10.07;7.45;;;;;;;14.73;100.00;101871.44;5150782;28;20394;-66
2021/08/12 00:02:47;;;;;;;12.52;7.18;;;;;;;14.71;100.00;101865.47;5149943;28;20094;-66
2021/08/12 00:05:19;;;;;;;11.75;7.78;;;;;;;14.71;100.00;101862.84;5151115;28;20035;-66
2021/08/12 00:07:50;;;;;;;10.60;7.60;;;;;;;14.68;100.00;101863.94;5150263;28;20114;-66
2021/08/12 00:10:21;;;;;;;13.93;8.05;;;;;;;14.62;100.00;101861.81;5149926;28;20028;-67
2021/08/12 00:12:53;;;;;;;9.50;7.07;;;;;;;14.59;100.00;101856.81;5154964;28;20043;-67
2021/08/12 00:15:24;;;;;;;10.82;8.02;;;;;;;14.57;100.00;101854.31;5154751;28;20022;-67
2021/08/12 00:17:55;;;;;;;10.35;7.63;;;;;;;14.58;100.00;101860.41;5154307;28;20046;-67
2021/08/12 00:20:27;;;;;;;11.00;7.53;;;;;;;14.54;100.00;101865.09;5152664;28;20097;-66
2021/08/12 00:22:58;;;;;;;11.13;7.38;;;;;;;14.52;100.00;101877.59;5154293;29;20441;-66
2021/08/12 00:25:29;;;;;;;10.63;7.57;;;;;;;14.54;100.00;101866.91;5154382;28;20070;-67
2021/08/12 00:28:01;;;;;;;10.10;8.18;;;;;;;14.48;100.00;101870.06;5153471;28;20026;-67
2021/08/12 00:30:32;;;;;;;12.32;7.90;;;;;;;14.45;100.00;101867.69;5153109;28;20544;-67
2021/08/12 00:33:03;;;;;;;13.85;8.30;;;;;;;14.47;100.00;101871.88;5154042;29;20505;-66
2021/08/12 00:35:35;;;;;;;10.98;8.40;;;;;;;14.44;100.00;101873.94;5154445;28;20023;-67
2021/08/12 00:38:06;;;;;;;10.70;8.25;;;;;;;14.43;100.00;101865.16;5153365;28;20075;-66
2021/08/12 00:40:37;;;;;;;11.38;7.65;;;;;;;14.41;100.00;101874.19;5153428;28;20223;-66
2021/08/12 00:43:10;;;;;;;11.10;8.18;;;;;;;14.34;100.00;101872.06;5153865;28;20026;-67
2021/08/12 00:45:41;;;;;;;11.50;7.93;;;;;;;14.35;100.00;101871.06;5151620;28;20031;-67
2021/08/12 00:48:12;;;;;;;11.55;8.65;;;;;;;14.32;100.00;101866.09;5154712;28;20293;-67
2021/08/12 00:50:45;;;;;;;11.60;7.93;;;;;;;14.37;100.00;101865.69;5153655;28;20058;-66
2021/08/12 00:53:17;;;;;;;12.10;9.25;;;;;;;14.36;100.00;101866.66;5153214;29;20047;-67
2021/08/12 00:55:48;;;;;;;11.80;8.57;;;;;;;14.39;100.00;101871.66;5153434;29;20093;-67
2021/08/12 00:58:20;;;;;;;10.18;8.80;;;;;;;14.42;100.00;101867.94;5153903;28;20032;-66
2021/08/12 01:00:51;;;;;;;11.23;9.52;;;;;;;14.48;100.00;101864.78;5152061;29;20035;-67
2021/08/12 01:03:22;;;;;;;10.68;9.07;;;;;;;14.51;100.00;101869.84;5153492;28;20681;-66
2021/08/12 01:05:55;;;;;;;10.85;9.35;;;;;;;14.65;100.00;101864.19;5153667;28;20060;-67
2021/08/12 01:08:58;;;;;;;11.98;9.68;;;;;;;14.74;100.00;101862.59;5153780;29;20031;-66
2021/08/12 01:11:38;;;;;;;9.85;8.75;;;;;;;14.65;100.00;101861.56;5151754;29;20346;-67
2021/08/12 01:14:48;;;;;;;9.68;8.68;;;;;;;14.76;100.00;101860.63;5153806;28;20509;-66
2021/08/12 01:17:23;;;;;;;10.25;8.77;;;;;;;14.63;100.00;101860.88;5143092;29;20129;-67
2021/08/12 01:20:06;;;;;;;12.25;8.75;;;;;;;14.65;100.00;101869.47;5151301;29;20031;-67
2021/08/12 01:22:40;;;;;;;;;;;;;;;14.88;100.00;101864.00;5152248;28;20066;-67
2021/08/12 01:25:27;;;;;;;;;;;;;;;14.89;100.00;101860.41;5153960;28;20356;-66
2021/08/12 01:28:10;;;;;;;10.23;9.05;;;;;;;14.67;100.00;101862.28;5152670;29;19918;-67
2021/08/12 01:31:04;;;;;;;;;;;;;;;14.85;100.00;101862.50;5149193;29;20348;-66
2021/08/12 01:33:42;;;;;;;;;;;;;;;14.86;100.00;101864.16;5123711;28;20459;-67
2021/08/12 01:36:15;;;;;;;9.57;8.48;;;;;;;14.56;100.00;101854.44;5153248;29;20376;-67
2021/08/12 01:38:47;;;;;;;;;;;;;;;14.84;100.00;101866.91;5151039;29;20027;-67
2021/08/12 01:41:20;;;;;;;9.65;8.48;;;;;;;14.56;100.00;101862.34;5151573;29;20017;-67
2021/08/12 01:43:52;;;;;;;11.43;9.43;;;;;;;14.53;100.00;101870.53;5152359;29;20115;-67
2021/08/12 01:46:25;;;;;;;11.10;9.43;;;;;;;14.54;100.00;101873.00;5152763;28;20023;-67
2021/08/12 01:49:00;;;;;;;13.50;9.18;;;;;;;14.50;100.00;101871.59;5152773;28;20031;-67
2021/08/12 01:51:32;;;;;;;10.60;9.20;;;;;;;14.48;100.00;101857.72;5151858;28;20122;-67
2021/08/12 01:54:05;;;;;;;11.37;9.33;;;;;;;14.50;100.00;101868.97;5152466;28;20058;-67
2021/08/12 01:56:37;;;;;;;11.05;9.15;;;;;;;14.48;100.00;101860.34;5152984;28;20019;-67
2021/08/12 01:59:09;;;;;;;11.73;10.00;;;;;;;14.49;100.00;101855.91;5151908;29;20374;-67
2021/08/12 02:01:40;;;;;;;14.00;10.23;;;;;;;14.54;100.00;101849.28;5165178;28;20039;-67
2021/08/12 02:04:13;;;;;;;12.95;10.30;;;;;;;14.48;100.00;101841.88;5152449;28;20118;-67
2021/08/12 02:06:45;;;;;;;11.52;9.75;;;;;;;14.53;100.00;101846.78;5151904;28;20038;-67
2021/08/12 02:09:16;;;;;;;12.07;10.30;;;;;;;14.52;100.00;101837.22;5151047;29;20031;-67
2021/08/12 02:11:47;;;;;;;12.50;10.50;;;;;;;14.49;100.00;101832.16;5150503;28;20114;-67
2021/08/12 02:14:19;;;;;;;10.63;9.52;;;;;;;14.46;100.00;101827.16;5151964;28;20038;-67
2021/08/12 02:16:50;;;;;;;11.43;9.50;;;;;;;14.46;100.00;101812.16;5152420;28;20027;-67
2021/08/12 02:19:21;;;;;;;12.25;9.90;;;;;;;14.43;100.00;101814.22;5152208;28;20026;-67
2021/08/12 02:22:12;;;;;;;11.43;9.23;;;;;;;14.51;100.00;101817.09;5151032;28;20031;-67
2021/08/12 02:25:02;;;;;;;9.57;8.57;;;;;;;14.44;100.00;101813.28;5152210;28;20037;-67
2021/08/12 02:27:38;;;;;;;14.57;9.50;;;;;;;14.32;100.00;101812.53;5152028;29;20071;-67
2021/08/12 02:30:11;;;;;;;11.40;9.15;;;;;;;14.25;100.00;101811.38;5150921;29;20047;-67
2021/08/12 02:32:43;;;;;;;12.55;9.88;;;;;;;14.21;100.00;101810.81;5151410;29;20118;-67
2021/08/12 02:35:19;;;;;;;11.05;9.32;;;;;;;14.19;100.00;101810.09;5152451;28;20436;-67
2021/08/12 02:37:53;;;;;;;10.07;9.00;;;;;;;14.17;100.00;101812.03;5150625;29;20034;-67
2021/08/12 02:40:28;;;;;;;12.27;9.55;;;;;;;14.11;100.00;101820.44;5152368;28;20027;-67
2021/08/12 02:43:00;;;;;;;11.27;9.35;;;;;;;14.08;100.00;101818.06;5150922;29;20027;-67
2021/08/12 02:45:33;;;;;;;11.20;9.23;;;;;;;14.08;100.00;101828.59;5151682;28;20121;-67
2021/08/12 02:48:09;;;;;;;10.82;9.07;;;;;;;14.09;100.00;101822.34;5152526;28;20497;-67
2021/08/12 02:50:43;;;;;;;11.57;8.95;;;;;;;14.03;100.00;101822.91;5150797;29;20568;-67
2021/08/12 02:53:15;;;;;;;10.88;9.27;;;;;;;14.05;100.00;101826.22;5151192;29;20077;-67
2021/08/12 02:55:47;;;;;;;10.55;9.23;;;;;;;14.01;100.00;101823.00;5151540;28;20489;-67
2021/08/12 02:58:20;;;;;;;12.90;9.18;;;;;;;14.03;100.00;101822.91;5151105;29;20031;-67
2021/08/12 03:00:51;;;;;;;11.32;10.18;;;;;;;13.97;100.00;101823.41;5150494;29;20027;-67
2021/08/12 03:03:25;;;;;;;12.90;10.60;;;;;;;14.02;100.00;101815.97;5151441;29;20037;-67
2021/08/12 03:05:58;;;;;;;13.18;10.63;;;;;;;14.03;100.00;101815.00;5150846;29;20446;-67
2021/08/12 03:08:32;;;;;;;14.25;11.48;;;;;;;14.05;100.00;101807.78;5151739;29;20027;-67
2021/08/12 03:11:03;;;;;;;14.90;11.05;;;;;;;14.06;100.00;101820.00;5151163;29;20162;-67
2021/08/12 03:13:36;;;;;;;14.07;10.52;;;;;;;14.01;100.00;101814.25;5150224;28;20034;-67
2021/08/12 03:16:07;;;;;;;18.05;11.50;;;;;;;14.01;100.00;101828.28;5151997;28;20560;-67
2021/08/12 03:18:38;;;;;;;12.85;10.25;;;;;;;13.98;100.00;101817.16;5152447;28;20023;-67
2021/08/12 03:21:11;;;;;;;13.77;10.77;;;;;;;13.96;100.00;101812.03;5150815;28;20031;-67
2021/08/12 03:23:43;;;;;;;17.55;11.70;;;;;;;13.92;100.00;101801.88;5151525;28;20038;-67
2021/08/12 03:26:15;;;;;;;12.55;11.25;;;;;;;13.90;100.00;101803.78;5151450;28;20031;-67
2021/08/12 03:28:46;;;;;;;13.63;11.30;;;;;;;13.87;100.00;101803.09;5151660;29;20043;-67
2021/08/12 03:31:17;;;;;;;13.05;11.07;;;;;;;13.81;100.00;101800.13;5150252;28;20394;-67
2021/08/12 03:33:49;;;;;;;13.75;10.85;;;;;;;13.81;100.00;101800.97;5151381;28;20038;-67
2021/08/12 03:36:21;;;;;;;15.57;10.73;;;;;;;13.80;100.00;101809.84;5151163;28;20019;-67
2021/08/12 03:38:52;;;;;;;13.93;11.13;;;;;;;13.76;100.00;101815.50;5151741;28;20523;-67
2021/08/12 03:41:23;;;;;;;11.35;10.10;;;;;;;13.74;100.00;101810.34;5150725;28;20035;-67
2021/08/12 03:43:55;;;;;;;14.25;10.68;;;;;;;13.75;100.00;101809.41;5148826;28;20570;-67
2021/08/12 03:46:26;;;;;;;14.25;11.68;;;;;;;13.69;100.00;101823.06;5152575;28;20031;-67
2021/08/12 03:48:57;;;;;;;12.93;10.32;;;;;;;13.67;100.00;101814.44;5155072;28;20089;-67
2021/08/12 03:51:29;;;;;;;11.90;10.38;;;;;;;13.62;100.00;101814.00;5154913;28;20485;-67
2021/08/12 03:54:00;;;;;;;13.98;10.95;;;;;;;13.55;100.00;101813.66;5154091;29;20027;-67
2021/08/12 03:56:32;;;;;;;12.48;10.30;;;;;;;13.53;100.00;101806.84;5155564;28;20074;-67
2021/08/12 03:59:04;;;;;;;13.55;10.95;;;;;;;13.52;100.00;101827.06;5153911;28;20065;-67
2021/08/12 04:01:36;;;;;;;11.73;10.30;;;;;;;13.50;100.00;101820.25;5152486;28;20035;-67
2021/08/12 04:04:07;;;;;;;13.57;10.65;;;;;;;13.48;100.00;101822.16;5154601;28;20760;-67
2021/08/12 04:06:38;;;;;;;12.65;10.30;;;;;;;13.48;100.00;101825.63;5154176;28;20027;-67
2021/08/12 04:09:09;;;;;;;12.52;10.43;;;;;;;13.48;100.00;101824.81;5154788;28;20047;-67
2021/08/12 04:11:41;;;;;;;13.75;9.98;;;;;;;13.48;100.00;101827.44;5152620;28;20035;-67
2021/08/12 04:14:12;;;;;;;13.32;10.52;;;;;;;13.45;100.00;101825.06;5154609;28;20019;-67
2021/08/12 04:16:43;;;;;;;13.10;10.60;;;;;;;13.37;100.00;101812.50;5154932;28;20070;-67
2021/08/12 04:19:15;;;;;;;12.98;11.02;;;;;;;13.43;100.00;101824.34;5154186;28;20030;-67
2021/08/12 04:21:46;;;;;;;13.07;11.05;;;;;;;13.42;100.00;101826.16;5151905;28;20031;-67
2021/08/12 04:24:17;;;;;;;15.48;10.93;;;;;;;13.41;100.00;101818.38;5154521;28;20110;-67
2021/08/12 04:26:48;;;;;;;14.05;11.38;;;;;;;13.37;100.00;101812.50;5167675;28;20053;-67
2021/08/12 04:29:20;;;;;;;13.20;11.70;;;;;;;13.41;100.00;101821.00;5154475;28;20405;-67
2021/08/12 04:31:51;;;;;;;13.57;11.20;;;;;;;13.40;100.00;101822.78;5152989;28;20090;-67
2021/08/12 04:34:23;;;;;;;14.25;10.82;;;;;;;13.49;100.00;101834.41;5153603;29;20054;-67
2021/08/12 04:36:54;;;;;;;13.60;12.07;;;;;;;13.44;100.00;101828.66;5153798;28;20126;-67
2021/08/12 04:39:25;;;;;;;15.77;11.90;;;;;;;13.41;100.00;101835.03;5151760;28;20029;-67
2021/08/12 04:41:57;;;;;;;16.13;12.40;;;;;;;13.41;100.00;101835.03;5153863;28;20037;-67
2021/08/12 04:44:28;;;;;;;15.10;12.68;;;;;;;13.42;100.00;101839.31;5154246;28;20086;-67
2021/08/12 04:47:00;;;;;;;14.63;12.80;;;;;;;13.45;100.00;101838.22;5153321;29;20523;-67
2021/08/12 04:49:31;;;;;;;14.70;13.00;;;;;;;13.45;100.00;101840.84;5152455;28;20389;-67
2021/08/12 04:52:02;;;;;;;15.23;12.40;;;;;;;13.45;100.00;101851.38;5153833;29;20076;-67
2021/08/12 04:54:34;;;;;;;14.43;12.07;;;;;;;13.52;100.00;101858.66;5154217;28;20389;-67
2021/08/12 04:57:05;;;;;;;14.48;11.65;;;;;;;13.47;100.00;101852.09;5152482;28;20504;-67
2021/08/12 04:59:36;;;;;;;13.52;12.18;;;;;;;13.47;100.00;101852.09;5152037;28;20078;-67
2021/08/12 05:02:08;;;;;;;13.80;12.10;;;;;;;13.49;100.00;101858.09;5153988;29;20035;-67
2021/08/12 05:04:39;;;;;;;16.77;12.38;;;;;;;13.53;100.00;101854.25;5153855;28;20050;-67
2021/08/12 05:07:10;;;;;;;17.55;13.27;;;;;;;13.58;100.00;101855.53;5153475;28;20397;-67
2021/08/12 05:09:42;;;;;;;14.70;13.10;;;;;;;13.66;100.00;101848.81;5152531;28;20118;-67
2021/08/12 05:12:21;;;;;;;16.33;13.82;;;;;;;13.76;100.00;101852.38;5153760;28;20030;-67
2021/08/12 05:14:52;;;;;;;16.33;14.48;;;;;;;13.79;100.00;101855.59;5153001;29;20027;-67
2021/08/12 05:17:23;;;;;;;17.88;14.77;;;;;;;13.83;100.00;101843.84;5152192;28;20098;-67
2021/08/12 05:19:54;;;;;;;17.30;15.43;;;;;;;13.91;100.00;101855.53;5152834;28;20390;-67
2021/08/12 05:22:26;;;;;;;19.90;15.45;;;;;;;13.94;100.00;101840.31;5151014;28;20476;-67
2021/08/12 05:24:57;;;;;;;18.65;14.77;;;;;;;13.96;100.00;101838.38;5153172;29;20023;-67
2021/08/12 05:27:28;;;;;;;19.05;15.98;;;;;;;14.05;100.00;101834.97;5153839;28;20031;-67
2021/08/12 05:30:00;;;;;;;20.88;15.65;;;;;;;14.10;100.00;101838.06;5152227;28;20043;-67
2021/08/12 05:32:31;;;;;;;19.63;15.27;;;;;;;14.21;100.00;101841.59;5152791;29;20106;-67
2021/08/12 05:35:04;;;;;;;17.27;15.32;;;;;;;14.24;100.00;101842.16;5152791;29;20027;-67
2021/08/12 05:37:35;;;;;;;17.80;15.48;;;;;;;14.32;100.00;101837.09;5153606;29;20520;-68
2021/08/12 05:40:07;;;;;;;19.45;16.23;;;;;;;14.38;100.00;101833.09;5151785;28;21400;-68
2021/08/12 05:42:38;;;;;;;21.30;15.88;;;;;;;14.39;100.00;101832.09;5152396;29;20558;-68
2021/08/12 05:45:10;;;;;;;17.65;15.75;;;;;;;14.49;100.00;101848.00;5152268;28;20121;-68
2021/08/12 05:47:41;;;;;;;17.95;15.45;;;;;;;14.54;100.00;101848.44;5150613;28;20031;-68
2021/08/12 05:50:12;;;;;;;20.35;15.40;;;;;;;14.57;100.00;101843.75;5152621;28;20019;-68
2021/08/12 05:52:44;;;;;;;19.10;15.88;;;;;;;14.63;100.00;101842.41;5152839;28;20031;-68
2021/08/12 05:55:15;;;;;;;19.27;16.60;;;;;;;14.66;100.00;101844.78;5152289;28;20027;-68
2021/08/12 05:57:46;;;;;;;20.60;16.02;;;;;;;14.68;100.00;101850.75;5147199;28;20241;-67
2021/08/12 06:00:18;;;;;;;17.58;15.73;;;;;;;14.79;100.00;101863.00;5149873;28;20023;-67
2021/08/12 06:02:50;;;;;;;19.38;15.75;;;;;;;14.84;100.00;101853.72;5151106;28;20039;-67
2021/08/12 06:05:21;;;;;;;17.75;15.85;;;;;;;14.90;100.00;101856.81;5141297;28;20030;-67
2021/08/12 06:07:52;;;;;;;19.05;15.88;;;;;;;14.95;100.00;101854.59;5150164;28;20066;-68
2021/08/12 06:10:23;;;;;;;20.92;17.73;;;;;;;15.02;100.00;101850.47;5150646;28;20027;-68
2021/08/12 06:12:56;;;;;;;24.35;17.42;;;;;;;15.09;100.00;101859.50;5148277;28;20023;-67
2021/08/12 06:15:28;;;;;;;21.43;17.67;;;;;;;15.19;100.00;101857.75;5151830;28;20045;-68
2021/08/12 06:18:05;;;;;;;25.30;17.95;;;;;;;15.29;100.00;101861.22;5149870;29;20031;-68
2021/08/12 06:20:38;;;;;;;21.17;18.52;;;;;;;15.34;100.00;101858.16;5150947;29;20054;-68
2021/08/12 06:23:10;;;;;;;;;;;;;;;15.49;100.00;101864.75;5152794;29;20423;-67
2021/08/12 06:25:41;;;;;;;20.98;17.90;;;;;;;15.41;100.00;101856.66;5151011;28;20139;-68
2021/08/12 06:28:12;;;;;;;21.40;18.77;;;;;;;15.51;100.00;101861.94;5151477;28;20059;-68
2021/08/12 06:30:43;;;;;;;21.02;18.92;;;;;;;15.63;100.00;101866.13;5151929;28;20126;-68
2021/08/12 06:33:15;;;;;;;20.13;17.98;;;;;;;15.70;100.00;101856.72;5152118;28;20442;-69
2021/08/12 06:35:46;;;;;;;22.77;18.05;;;;;;;15.75;100.00;101857.13;5152029;29;20027;-69
2021/08/12 06:38:17;;;;;;;20.35;18.00;;;;;;;15.77;100.00;101859.63;5149314;28;20106;-69
2021/08/12 06:40:49;;;;;;;19.45;17.30;;;;;;;15.87;100.00;101867.53;5151213;28;20026;-69
2021/08/12 06:43:20;;;;;;;19.77;17.08;;;;;;;15.94;100.00;101863.38;5152664;28;20039;-69
2021/08/12 06:45:51;;;;;;;18.65;16.65;;;;;;;16.03;100.00;101854.63;5150280;28;20032;-69
2021/08/12 06:48:23;;;;;;;19.95;17.63;;;;;;;16.14;100.00;101862.41;5151866;28;20110;-69
2021/08/12 06:50:54;;;;;;;18.20;16.02;;;;;;;16.27;100.00;101865.56;5151687;28;20031;-69
2021/08/12 06:53:25;;;;;;;17.92;16.02;;;;;;;16.27;100.00;101864.72;5152068;28;20031;-69
2021/08/12 06:55:56;;;;;;;18.25;15.98;;;;;;;16.50;100.00;101865.22;5152701;28;20034;-69
2021/08/12 06:58:28;;;;;;;19.25;16.75;;;;;;;16.63;100.00;101860.47;5152369;28;20114;-69
2021/08/12 07:00:59;;;;;;;19.40;15.68;;;;;;;16.71;100.00;101865.03;5151534;28;20067;-69
2021/08/12 07:03:30;;;;;;;16.98;14.93;;;;;;;16.72;100.00;101854.28;5150439;28;20466;-69
2021/08/12 07:06:02;;;;;;;16.47;14.43;;;;;;;16.94;100.00;101862.88;5148909;28;20019;-69
2021/08/12 07:08:33;;;;;;;16.45;14.30;;;;;;;16.97;100.00;101862.56;5151189;28;20290;-69
2021/08/12 07:11:05;;;;;;;16.25;14.55;;;;;;;17.02;100.00;101865.59;5151102;28;20035;-69
2021/08/12 07:13:36;;;;;;;15.38;13.20;;;;;;;17.21;100.00;101857.56;5151205;28;20071;-69
2021/08/12 07:16:11;;;;;;;16.85;12.15;;;;;;;17.32;100.00;101858.34;5151321;28;20690;-69
2021/08/12 07:18:43;;;;;;;14.48;12.23;;;;;;;17.39;100.00;101864.72;5152126;28;20057;-69
2021/08/12 07:21:21;;;;;;;13.52;11.75;;;;;;;17.53;100.00;101864.16;5152966;28;20027;-69
2021/08/12 07:23:52;;;;;;;13.63;11.32;;;;;;;17.70;100.00;101866.00;5155970;28;20027;-69
2021/08/12 07:26:24;;;;;;;15.75;11.43;;;;;;;17.77;100.00;101866.25;5155664;28;20023;-69
2021/08/12 07:28:55;;;;;;;14.40;11.32;;;;;;;17.93;100.00;101860.25;5152259;28;20050;-69
2021/08/12 07:31:27;;;;;;;12.10;10.43;;;;;;;17.99;100.00;101865.78;5153925;28;20083;-70
2021/08/12 07:33:59;;;;;;;12.05;10.80;;;;;;;18.19;100.00;101863.78;5150871;28;20035;-69
2021/08/12 07:36:30;;;;;;;13.53;11.40;;;;;;;18.29;100.00;101865.47;5154993;28;20027;-70
2021/08/12 07:39:03;;;;;;;13.63;11.55;;;;;;;18.33;100.00;101866.84;5155384;28;20294;-69
2021/08/12 07:41:35;;;;;;;;;;;;;;;18.48;100.00;101862.63;5154096;28;20543;-69
2021/08/12 07:44:06;;;;;;;11.80;9.80;;;;;;;18.47;100.00;101859.13;5154484;28;19997;-69
2021/08/12 07:46:37;;;;;;;14.85;10.35;;;;;;;18.61;100.00;101865.69;5149608;28;20515;-69
2021/08/12 07:49:09;;;;;;;11.13;9.93;;;;;;;18.69;100.00;101857.75;5153394;28;20212;-69
2021/08/12 07:51:40;;;;;;;10.73;9.40;;;;;;;18.92;100.00;101871.34;5155854;28;20546;-70
2021/08/12 07:54:11;;;;;;;11.53;9.57;;;;;;;18.88;100.00;101863.84;5149809;28;20425;-68
2021/08/12 07:56:43;;;;;;;11.33;8.83;;;;;;;19.19;100.00;101867.59;5149448;28;20078;-68
2021/08/12 07:59:14;;;;;;;10.83;9.37;;;;;;;19.32;100.00;101874.28;5155270;28;20015;-69
2021/08/12 08:01:46;;;;;;;13.00;8.90;;;;;;;19.45;100.00;101861.38;5153921;28;20039;-68
2021/08/12 08:04:17;;;;;;;11.70;9.20;;;;;;;19.51;100.00;101871.34;5155028;28;20187;-69
2021/08/12 08:06:48;;;;;;;11.97;8.10;;;;;;;19.73;100.00;101874.38;5156034;28;20043;-69
2021/08/12 08:09:19;;;;;;;11.93;8.43;;;;;;;19.85;100.00;101875.72;5154079;28;20493;-69
2021/08/12 08:11:51;;;;;;;12.97;9.30;;;;;;;19.94;100.00;101872.06;5155365;28;20504;-70
2021/08/12 08:14:22;;;;;;;10.37;7.80;;;;;;;20.05;100.00;101871.72;5154548;28;20401;-70
2021/08/12 08:16:53;;;;;;;10.57;8.47;;;;;;;20.20;99.93;101874.56;5155808;28;20023;-69
2021/08/12 08:19:24;;;;;;;11.47;8.27;;;;;;;20.37;98.23;101864.69;5155448;28;20489;-70
2021/08/12 08:21:56;;;;;;;10.87;8.10;;;;;;;20.46;98.42;101877.00;5153676;28;20400;-69
2021/08/12 08:24:27;;;;;;;10.07;8.10;;;;;;;20.50;98.20;101880.19;5153975;28;20098;-70
2021/08/12 08:26:59;;;;;;;10.57;7.53;;;;;;;20.65;96.94;101873.16;5155067;28;20435;-70
2021/08/12 08:29:31;;;;;;;8.85;7.75;;;;;;;20.72;95.29;101873.28;5153069;28;20042;-70
2021/08/12 08:32:02;;;;;;;7.30;6.57;;;;;;;21.05;95.13;101866.81;5154014;28;20477;-70
2021/08/12 08:34:34;;;;;;;9.23;7.67;;;;;;;21.08;95.74;101865.66;5154628;28;20050;-70
2021/08/12 08:37:05;;;;;;;8.20;6.83;;;;;;;21.23;92.83;101873.72;5153594;28;20044;-70
2021/08/12 08:39:36;;;;;;;8.90;5.80;;;;;;;21.37;90.85;101867.69;5155300;28;20023;-70
2021/08/12 08:42:08;;;;;;;8.27;5.43;;;;;;;21.54;91.49;101873.72;5154663;28;20063;-70
2021/08/12 08:44:42;;;;;;;9.87;6.73;;;;;;;21.50;90.25;101873.25;5151435;28;20020;-69
2021/08/12 08:47:14;;;;;;;7.70;6.00;;;;;;;21.69;91.00;101876.47;5151778;28;20502;-69
2021/08/12 08:49:47;;;;;;;7.82;5.93;;;;;;;21.92;89.15;101877.25;5150484;28;20409;-68
2021/08/12 08:52:20;;;;;;;;;;;;;;;22.07;91.09;101872.78;5149998;29;20035;-69
2021/08/12 08:54:53;;;;;;;9.80;6.57;;;;;;;22.07;86.99;101864.78;5150808;28;19965;-69
2021/08/12 08:57:24;;;;;;;10.82;6.82;;;;;;;22.16;88.94;101875.41;5151269;28;20675;-69
2021/08/12 08:59:56;;;;;;;9.23;6.20;;;;;;;22.27;87.80;101878.47;5146340;28;20023;-69
2021/08/12 09:02:28;;;;;;;7.53;6.70;;;;;;;22.45;88.38;101870.13;5150852;28;20031;-69
2021/08/12 09:04:59;;;;;;;7.63;6.30;;;;;;;22.48;86.11;101875.09;5151295;28;20037;-69
2021/08/12 09:07:30;;;;;;;8.40;5.60;;;;;;;22.62;85.27;101867.28;5147739;28;20034;-68
2021/08/12 09:10:02;;;;;;;9.03;5.80;;;;;;;22.66;84.31;101871.25;5149893;29;20049;-69
2021/08/12 09:12:36;;;;;;;6.73;4.77;;;;;;;22.89;84.50;101871.94;5151560;28;20035;-69
2021/08/12 09:15:08;;;;;;;8.40;5.32;;;;;;;23.01;82.88;101869.66;5152040;28;20030;-69
2021/08/12 09:17:40;;;;;;;9.35;5.05;;;;;;;23.13;82.62;101872.69;5148543;28;21723;-69
2021/08/12 09:20:18;;;;;;;7.63;5.37;;;;;;;23.31;81.43;101873.09;5151274;28;20027;-69
2021/08/12 09:23:02;;;;;;;6.68;4.68;;;;;;;23.49;82.64;101870.81;5147872;28;20081;-69
2021/08/12 09:25:49;;;;;;;8.40;4.97;;;;;;;23.61;80.99;101876.47;5151191;28;20047;-69
2021/08/12 09:28:24;;;;;;;5.72;4.55;;;;;;;23.65;80.07;101875.09;5151511;28;20031;-69
2021/08/12 09:30:59;;;;;;;5.95;4.50;;;;;;;23.73;79.62;101871.47;5147717;28;21198;-69
2021/08/12 09:33:32;;;;;;;6.13;4.72;;;;;;;23.81;77.76;101873.19;5148804;28;20031;-69
2021/08/12 09:36:04;;;;;;;6.45;4.63;;;;;;;23.94;76.71;101866.13;5151601;29;20406;-69
2021/08/12 09:38:35;;;;;;;8.07;5.23;;;;;;;23.96;76.74;101860.56;5148404;28;20042;-69
2021/08/12 09:41:06;;;;;;;8.10;4.57;;;;;;;24.08;77.63;101864.34;5149090;28;20031;-70
2021/08/12 09:43:37;;;;;;;5.53;4.67;;;;;;;24.17;76.38;101865.88;5150844;28;20035;-68
2021/08/12 09:46:18;;;;;;;7.77;4.90;;;;;;;24.29;77.11;101866.16;5150508;28;20397;-68
2021/08/12 09:48:58;;;;;;;7.57;4.40;;;;;;;24.42;77.34;101863.56;5150995;28;20082;-69
2021/08/12 09:51:34;;;;;;;6.07;4.95;;;;;;;24.49;76.25;101861.78;5150451;28;20031;-69
2021/08/12 09:54:05;;;;;;;6.82;4.70;;;;;;;24.42;75.40;101865.44;5150455;29;20035;-69
2021/08/12 09:56:36;;;;;;;7.30;4.23;;;;;;;24.56;76.94;101875.22;5150889;28;20081;-69
2021/08/12 09:59:08;;;;;;;7.00;4.87;;;;;;;24.62;76.08;101865.53;5150943;28;20105;-69
2021/08/12 10:01:39;;;;;;;4.20;3.67;;;;;;;24.68;75.81;101875.47;5150740;28;20031;-69
2021/08/12 10:04:27;;;;;;;4.53;3.87;;;;;;;24.88;76.14;101870.19;5151222;28;20494;-69
2021/08/12 10:06:59;;;;;;;7.35;4.13;;;;;;;24.82;74.97;101871.00;5150670;28;20437;-69
2021/08/12 10:09:40;;;;;;;5.73;3.97;;;;;;;24.96;75.84;101859.28;5151149;28;20066;-69
2021/08/12 10:12:31;;;;;;;5.50;4.13;;;;;;;25.03;75.33;101852.09;5150549;28;20023;-69
2021/08/12 10:15:03;;;;;;;5.55;3.88;;;;;;;25.24;76.49;101856.53;5150701;29;20169;-69
2021/08/12 10:17:34;;;;;;;5.80;4.20;;;;;;;25.33;75.12;101852.63;5151021;28;20023;-69
2021/08/12 10:20:08;;;;;;;6.67;4.07;;;;;;;25.38;73.97;101852.00;5150781;28;20092;-69
2021/08/12 10:22:40;;;;;;;7.28;3.83;;;;;;;25.50;75.71;101847.72;5150018;28;20050;-69
2021/08/12 10:25:13;;;;;;;6.50;3.65;;;;;;;25.56;74.05;101835.34;5150319;28;20042;-69
2021/08/12 10:27:47;;;;;;;5.93;3.83;;;;;;;25.45;74.05;101845.63;5150639;29;20054;-69
2021/08/12 10:30:20;;;;;;;6.28;3.90;;;;;;;25.73;74.38;101837.41;5148889;28;20043;-69
2021/08/12 10:33:00;;;;;;;5.82;3.60;;;;;;;25.89;74.77;101835.38;5149968;28;20421;-69
2021/08/12 10:35:34;;;;;;;5.57;4.20;;;;;;;25.83;72.42;101841.56;5150182;28;20046;-69
2021/08/12 10:38:05;;;;;;;6.60;4.13;;;;;;;25.91;72.07;101844.03;5150467;29;20105;-69
2021/08/12 10:40:39;;;;;;;5.93;4.17;;;;;;;26.04;72.57;101843.22;5150821;28;20027;-69
2021/08/12 10:43:13;;;;;;;4.53;3.80;;;;;;;25.96;72.12;101837.00;5148704;28;20027;-69
2021/08/12 10:45:56;;;;;;;5.57;3.78;;;;;;;26.15;73.78;101838.03;5147948;28;20050;-69
2021/08/12 10:48:28;;;;;;;;;;;;;;;26.47;74.65;101832.81;5149276;28;20029;-69
2021/08/12 10:51:11;;;;;;;5.88;4.05;;;;;;;26.35;71.55;101842.53;5150248;28;19994;-70
2021/08/12 10:53:44;;;;;;;5.13;3.67;;;;;;;26.35;72.99;101837.16;5147018;28;20047;-69
2021/08/12 10:56:18;;;;;;;5.63;4.03;;;;;;;26.45;72.11;101834.84;5149366;28;20477;-69
2021/08/12 10:58:50;;;;;;;5.30;3.55;;;;;;;26.56;70.90;101818.09;5150763;28;20035;-69
2021/08/12 11:01:30;;;;;;;5.35;3.85;;;;;;;26.74;72.36;101830.84;5146041;28;20023;-69
2021/08/12 11:04:03;;;;;;;5.57;3.85;;;;;;;26.64;70.93;101831.31;5149197;28;20613;-69
2021/08/12 11:06:45;;;;;;;5.40;3.50;;;;;;;26.86;72.03;101829.16;5148657;28;20032;-68
2021/08/12 11:09:16;;;;;;;4.45;3.60;;;;;;;26.84;69.91;101831.22;5147271;28;20035;-69
2021/08/12 11:11:51;;;;;;;5.70;3.40;;;;;;;27.00;69.84;101827.19;5149636;28;20046;-69
2021/08/12 11:14:45;;;;;;;8.80;4.13;;;;;;;27.06;70.94;101830.91;5150913;28;20031;-69
2021/08/12 11:17:17;;;;;;;4.78;3.40;;;;;;;26.87;69.82;101828.09;5151503;28;20049;-69
2021/08/12 11:19:50;;;;;;;5.40;3.80;;;;;;;26.65;69.26;101826.75;5148904;28;20023;-69
2021/08/12 11:22:30;;;;;;;5.70;3.63;;;;;;;26.80;70.77;101832.69;5149367;28;20035;-69
2021/08/12 11:25:05;;;;;;;6.38;4.10;;;;;;;26.66;70.91;101828.38;5150004;28;20046;-69
2021/08/12 11:27:39;;;;;;;6.03;4.03;;;;;;;26.68;69.62;101832.53;5147992;28;20031;-69
2021/08/12 11:30:39;;;;;;;4.78;3.72;;;;;;;26.78;70.47;101829.38;5149801;28;21167;-69
2021/08/12 11:33:27;;;;;;;4.45;3.88;;;;;;;26.66;70.79;101831.91;5149778;29;20114;-69
2021/08/12 11:36:10;;;;;;;6.90;4.30;;;;;;;26.58;70.00;101834.00;5150232;28;20015;-69
2021/08/12 11:38:44;;;;;;;5.20;3.72;;;;;;;26.49;70.62;101835.28;5147027;28;20122;-68